sensor_id;sensor_type;location;lat;lon;timestamp;pressure;altitude;pressure_sealevel;temperature;humidity
82668;BME280;72691;51.374;-0.176;2024-02-23T00:01:06;98457.35;;;1.33;69.44
82668;BME280;72691;51.374;-0.176;2024-02-23T00:03:33;98444.55;;;1.12;70.21
82668;BME280;72691;51.374;-0.176;2024-02-23T00:05:58;98446.26;;;1.30;70.05
82668;BME280;72691;51.374;-0.176;2024-02-23T00:08:23;98441.70;;;1.08;69.74
82668;BME280;72691;51.374;-0.176;2024-02-23T00:10:48;98443.26;;;0.97;70.89
82668;BME280;72691;51.374;-0.176;2024-02-23T00:13:14;98441.38;;;1.33;69.82
82668;BME280;72691;51.374;-0.176;2024-02-23T00:15:39;98439.49;;;0.96;71.46
82668;BME280;72691;51.374;-0.176;2024-02-23T00:18:04;98434.75;;;1.80;68.59
82668;BME280;72691;51.374;-0.176;2024-02-23T00:20:30;98428.82;;;1.70;69.16
82668;BME280;72691;51.374;-0.176;2024-02-23T00:22:56;98432.46;;;1.81;70.26
82668;BME280;72691;51.374;-0.176;2024-02-23T00:25:21;98421.61;;;1.80;68.43
82668;BME280;72691;51.374;-0.176;2024-02-23T00:27:46;98423.60;;;1.73;69.55
82668;BME280;72691;51.374;-0.176;2024-02-23T00:30:13;98421.91;;;1.39;70.36
82668;BME280;72691;51.374;-0.176;2024-02-23T00:32:38;98419.24;;;1.82;69.96
82668;BME280;72691;51.374;-0.176;2024-02-23T00:35:03;98418.11;;;2.20;69.29
82668;BME280;72691;51.374;-0.176;2024-02-23T00:37:29;98411.82;;;1.58;70.12
82668;BME280;72691;51.374;-0.176;2024-02-23T00:39:54;98409.88;;;1.61;70.06
82668;BME280;72691;51.374;-0.176;2024-02-23T00:42:19;98409.01;;;1.45;70.50
82668;BME280;72691;51.374;-0.176;2024-02-23T00:44:46;98409.36;;;1.62;70.83
82668;BME280;72691;51.374;-0.176;2024-02-23T00:47:11;98399.49;;;1.53;70.38
82668;BME280;72691;51.374;-0.176;2024-02-23T00:49:36;98400.37;;;2.01;69.33
82668;BME280;72691;51.374;-0.176;2024-02-23T00:52:02;98406.63;;;1.74;70.42
82668;BME280;72691;51.374;-0.176;2024-02-23T00:54:27;98400.85;;;1.78;70.83
82668;BME280;72691;51.374;-0.176;2024-02-23T00:56:53;98395.81;;;1.47;69.76
82668;BME280;72691;51.374;-0.176;2024-02-23T00:59:18;98385.65;;;1.69;69.46
82668;BME280;72691;51.374;-0.176;2024-02-23T01:01:43;98386.25;;;1.97;70.45
82668;BME280;72691;51.374;-0.176;2024-02-23T01:04:09;98380.79;;;1.88;70.24
82668;BME280;72691;51.374;-0.176;2024-02-23T01:06:35;98383.37;;;2.20;67.99
82668;BME280;72691;51.374;-0.176;2024-02-23T01:09:00;98377.34;;;2.01;68.31
82668;BME280;72691;51.374;-0.176;2024-02-23T01:11:26;98375.22;;;2.16;69.09
82668;BME280;72691;51.374;-0.176;2024-02-23T01:13:51;98374.85;;;1.95;70.21
82668;BME280;72691;51.374;-0.176;2024-02-23T01:16:17;98369.06;;;1.75;69.24
82668;BME280;72691;51.374;-0.176;2024-02-23T01:18:42;98366.06;;;2.34;69.32
82668;BME280;72691;51.374;-0.176;2024-02-23T01:21:08;98365.01;;;1.45;70.95
82668;BME280;72691;51.374;-0.176;2024-02-23T01:23:33;98361.86;;;2.06;70.15
82668;BME280;72691;51.374;-0.176;2024-02-23T01:25:58;98362.48;;;1.66;70.44
82668;BME280;72691;51.374;-0.176;2024-02-23T01:28:24;98355.25;;;1.86;70.34
82668;BME280;72691;51.374;-0.176;2024-02-23T01:30:49;98352.76;;;2.41;69.70
82668;BME280;72691;51.374;-0.176;2024-02-23T01:33:15;98357.24;;;2.32;70.08
82668;BME280;72691;51.374;-0.176;2024-02-23T01:35:40;98346.33;;;2.04;70.33
82668;BME280;72691;51.374;-0.176;2024-02-23T01:38:06;98346.54;;;1.89;69.89
82668;BME280;72691;51.374;-0.176;2024-02-23T01:40:31;98338.23;;;2.48;67.64
82668;BME280;72691;51.374;-0.176;2024-02-23T01:43:01;98338.28;;;2.40;68.06
82668;BME280;72691;51.374;-0.176;2024-02-23T01:45:22;98337.18;;;2.38;67.73
82668;BME280;72691;51.374;-0.176;2024-02-23T01:47:48;98327.08;;;2.67;67.46
82668;BME280;72691;51.374;-0.176;2024-02-23T01:50:14;98326.04;;;1.75;69.34
82668;BME280;72691;51.374;-0.176;2024-02-23T01:52:39;98318.58;;;2.15;69.58
82668;BME280;72691;51.374;-0.176;2024-02-23T01:55:05;98314.77;;;2.32;69.65
82668;BME280;72691;51.374;-0.176;2024-02-23T01:57:30;98318.53;;;1.90;69.30
82668;BME280;72691;51.374;-0.176;2024-02-23T01:59:55;98320.15;;;2.07;69.74
82668;BME280;72691;51.374;-0.176;2024-02-23T02:02:21;98316.13;;;1.73;69.76
82668;BME280;72691;51.374;-0.176;2024-02-23T02:04:46;98311.35;;;1.87;70.17
82668;BME280;72691;51.374;-0.176;2024-02-23T02:07:12;98306.69;;;2.58;68.83
82668;BME280;72691;51.374;-0.176;2024-02-23T02:09:37;98309.30;;;1.80;69.65
82668;BME280;72691;51.374;-0.176;2024-02-23T02:12:03;98306.06;;;2.32;68.95
82668;BME280;72691;51.374;-0.176;2024-02-23T02:14:29;98297.26;;;2.31;69.48
82668;BME280;72691;51.374;-0.176;2024-02-23T02:16:54;98293.76;;;1.96;68.57
82668;BME280;72691;51.374;-0.176;2024-02-23T02:19:19;98279.73;;;2.30;68.25
82668;BME280;72691;51.374;-0.176;2024-02-23T02:21:45;98264.67;;;3.33;67.24
82668;BME280;72691;51.374;-0.176;2024-02-23T02:24:10;98256.03;;;2.89;67.94
82668;BME280;72691;51.374;-0.176;2024-02-23T02:26:37;98253.04;;;2.87;66.25
82668;BME280;72691;51.374;-0.176;2024-02-23T02:29:01;98250.27;;;2.61;68.19
82668;BME280;72691;51.374;-0.176;2024-02-23T02:31:27;98255.63;;;1.47;70.35
82668;BME280;72691;51.374;-0.176;2024-02-23T02:33:52;98252.52;;;1.97;69.31
82668;BME280;72691;51.374;-0.176;2024-02-23T02:36:18;98244.86;;;2.03;70.33
82668;BME280;72691;51.374;-0.176;2024-02-23T02:38:44;98237.58;;;2.64;68.48
82668;BME280;72691;51.374;-0.176;2024-02-23T02:41:09;98231.97;;;2.71;68.59
82668;BME280;72691;51.374;-0.176;2024-02-23T02:43:35;98233.26;;;2.39;69.55
82668;BME280;72691;51.374;-0.176;2024-02-23T02:46:00;98228.33;;;2.72;67.59
82668;BME280;72691;51.374;-0.176;2024-02-23T02:48:25;98224.86;;;1.80;70.25
82668;BME280;72691;51.374;-0.176;2024-02-23T02:50:51;98228.85;;;2.39;69.87
82668;BME280;72691;51.374;-0.176;2024-02-23T02:53:17;98230.65;;;2.21;70.19
82668;BME280;72691;51.374;-0.176;2024-02-23T02:55:43;98231.78;;;1.93;71.57
82668;BME280;72691;51.374;-0.176;2024-02-23T02:58:07;98223.79;;;1.76;72.64
82668;BME280;72691;51.374;-0.176;2024-02-23T03:00:33;98222.74;;;1.97;72.50
82668;BME280;72691;51.374;-0.176;2024-02-23T03:02:58;98216.65;;;1.83;74.08
82668;BME280;72691;51.374;-0.176;2024-02-23T03:05:24;98224.60;;;1.76;73.75
82668;BME280;72691;51.374;-0.176;2024-02-23T03:07:49;98219.16;;;1.95;74.52
82668;BME280;72691;51.374;-0.176;2024-02-23T03:10:16;98214.00;;;1.72;74.57
82668;BME280;72691;51.374;-0.176;2024-02-23T03:12:40;98211.11;;;1.27;76.15
82668;BME280;72691;51.374;-0.176;2024-02-23T03:15:06;98198.03;;;1.93;73.28
82668;BME280;72691;51.374;-0.176;2024-02-23T03:17:32;98201.43;;;1.25;73.91
82668;BME280;72691;51.374;-0.176;2024-02-23T03:19:57;98199.74;;;1.70;73.99
82668;BME280;72691;51.374;-0.176;2024-02-23T03:22:22;98185.19;;;2.18;74.13
82668;BME280;72691;51.374;-0.176;2024-02-23T03:24:48;98171.10;;;1.79;74.23
82668;BME280;72691;51.374;-0.176;2024-02-23T03:27:14;98175.21;;;1.25;75.76
82668;BME280;72691;51.374;-0.176;2024-02-23T03:29:39;98172.93;;;2.28;73.59
82668;BME280;72691;51.374;-0.176;2024-02-23T03:32:05;98170.16;;;2.09;73.77
82668;BME280;72691;51.374;-0.176;2024-02-23T03:34:30;98166.49;;;1.63;73.83
82668;BME280;72691;51.374;-0.176;2024-02-23T03:36:56;98167.25;;;2.29;72.72
82668;BME280;72691;51.374;-0.176;2024-02-23T03:39:21;98157.34;;;2.78;70.48
82668;BME280;72691;51.374;-0.176;2024-02-23T03:41:46;98158.66;;;1.98;74.07
82668;BME280;72691;51.374;-0.176;2024-02-23T03:44:12;98160.26;;;2.19;72.55
82668;BME280;72691;51.374;-0.176;2024-02-23T03:46:37;98158.16;;;1.66;74.85
82668;BME280;72691;51.374;-0.176;2024-02-23T03:49:03;98162.56;;;1.77;75.04
82668;BME280;72691;51.374;-0.176;2024-02-23T03:51:28;98157.72;;;1.61;74.99
82668;BME280;72691;51.374;-0.176;2024-02-23T03:53:54;98157.50;;;1.75;75.26
82668;BME280;72691;51.374;-0.176;2024-02-23T03:56:19;98158.12;;;2.04;73.71
82668;BME280;72691;51.374;-0.176;2024-02-23T03:58:45;98161.64;;;1.49;75.39
82668;BME280;72691;51.374;-0.176;2024-02-23T04:01:10;98163.33;;;1.78;75.14
82668;BME280;72691;51.374;-0.176;2024-02-23T04:03:35;98170.65;;;1.81;75.08
82668;BME280;72691;51.374;-0.176;2024-02-23T04:06:01;98164.44;;;2.42;73.36
82668;BME280;72691;51.374;-0.176;2024-02-23T04:08:26;98161.55;;;2.36;72.98
82668;BME280;72691;51.374;-0.176;2024-02-23T04:10:52;98161.42;;;2.03;74.35
82668;BME280;72691;51.374;-0.176;2024-02-23T04:13:17;98167.33;;;2.44;74.84
82668;BME280;72691;51.374;-0.176;2024-02-23T04:15:43;98176.11;;;1.76;76.10
82668;BME280;72691;51.374;-0.176;2024-02-23T04:18:08;98179.08;;;2.02;75.81
82668;BME280;72691;51.374;-0.176;2024-02-23T04:20:34;98180.34;;;2.13;74.77
82668;BME280;72691;51.374;-0.176;2024-02-23T04:23:00;98173.91;;;2.33;75.10
82668;BME280;72691;51.374;-0.176;2024-02-23T04:25:25;98173.79;;;2.04;74.67
82668;BME280;72691;51.374;-0.176;2024-02-23T04:27:50;98174.77;;;2.11;74.88
82668;BME280;72691;51.374;-0.176;2024-02-23T04:30:17;98174.77;;;2.22;72.98
82668;BME280;72691;51.374;-0.176;2024-02-23T04:32:41;98169.20;;;2.71;72.68
82668;BME280;72691;51.374;-0.176;2024-02-23T04:35:08;98170.84;;;2.91;72.36
82668;BME280;72691;51.374;-0.176;2024-02-23T04:37:32;98173.84;;;2.47;72.70
82668;BME280;72691;51.374;-0.176;2024-02-23T04:39:58;98177.41;;;2.37;73.81
82668;BME280;72691;51.374;-0.176;2024-02-23T04:42:23;98178.19;;;2.13;73.80
82668;BME280;72691;51.374;-0.176;2024-02-23T04:44:49;98180.57;;;2.95;72.65
82668;BME280;72691;51.374;-0.176;2024-02-23T04:47:15;98175.66;;;2.67;72.28
82668;BME280;72691;51.374;-0.176;2024-02-23T04:49:40;98183.29;;;2.49;71.99
82668;BME280;72691;51.374;-0.176;2024-02-23T04:52:05;98188.11;;;2.42;73.14
82668;BME280;72691;51.374;-0.176;2024-02-23T04:54:31;98190.18;;;2.64;72.93
82668;BME280;72691;51.374;-0.176;2024-02-23T04:56:56;98203.97;;;1.98;73.68
82668;BME280;72691;51.374;-0.176;2024-02-23T04:59:22;98212.19;;;2.22;72.95
82668;BME280;72691;51.374;-0.176;2024-02-23T05:01:47;98211.23;;;2.31;74.11
82668;BME280;72691;51.374;-0.176;2024-02-23T05:04:13;98212.59;;;2.61;72.54
82668;BME280;72691;51.374;-0.176;2024-02-23T05:06:38;98218.42;;;2.40;71.85
82668;BME280;72691;51.374;-0.176;2024-02-23T05:09:04;98223.07;;;2.65;72.63
82668;BME280;72691;51.374;-0.176;2024-02-23T05:11:29;98226.11;;;1.99;72.43
82668;BME280;72691;51.374;-0.176;2024-02-23T05:13:54;98226.77;;;2.49;72.02
82668;BME280;72691;51.374;-0.176;2024-02-23T05:16:20;98227.38;;;1.76;73.71
82668;BME280;72691;51.374;-0.176;2024-02-23T05:18:45;98227.57;;;2.35;72.78
82668;BME280;72691;51.374;-0.176;2024-02-23T05:21:10;98237.02;;;2.36;72.02
82668;BME280;72691;51.374;-0.176;2024-02-23T05:23:36;98235.63;;;2.01;73.70
82668;BME280;72691;51.374;-0.176;2024-02-23T05:26:02;98241.45;;;2.31;72.15
82668;BME280;72691;51.374;-0.176;2024-02-23T05:28:27;98239.75;;;1.67;73.25
82668;BME280;72691;51.374;-0.176;2024-02-23T05:30:54;98244.16;;;1.43;72.88
82668;BME280;72691;51.374;-0.176;2024-02-23T05:33:19;98246.32;;;1.89;73.52
82668;BME280;72691;51.374;-0.176;2024-02-23T05:35:45;98245.84;;;2.50;72.34
82668;BME280;72691;51.374;-0.176;2024-02-23T05:38:10;98244.88;;;2.20;71.66
82668;BME280;72691;51.374;-0.176;2024-02-23T05:40:35;98239.29;;;1.82;72.86
82668;BME280;72691;51.374;-0.176;2024-02-23T05:43:01;98243.07;;;1.89;72.85
82668;BME280;72691;51.374;-0.176;2024-02-23T05:45:26;98242.14;;;1.98;72.66
82668;BME280;72691;51.374;-0.176;2024-02-23T05:47:52;98244.16;;;2.39;71.53
82668;BME280;72691;51.374;-0.176;2024-02-23T05:50:17;98259.96;;;1.08;74.01
82668;BME280;72691;51.374;-0.176;2024-02-23T05:52:43;98253.33;;;1.48;73.81
82668;BME280;72691;51.374;-0.176;2024-02-23T05:55:08;98255.03;;;1.76;72.48
82668;BME280;72691;51.374;-0.176;2024-02-23T05:57:34;98255.76;;;2.37;72.15
82668;BME280;72691;51.374;-0.176;2024-02-23T05:59:59;98254.31;;;2.11;72.01
82668;BME280;72691;51.374;-0.176;2024-02-23T06:02:25;98254.80;;;1.85;71.90
82668;BME280;72691;51.374;-0.176;2024-02-23T06:04:50;98257.66;;;1.90;72.87
82668;BME280;72691;51.374;-0.176;2024-02-23T06:07:16;98253.62;;;1.95;71.59
82668;BME280;72691;51.374;-0.176;2024-02-23T06:09:41;98263.23;;;1.44;73.14
82668;BME280;72691;51.374;-0.176;2024-02-23T06:12:08;98266.59;;;1.77;72.65
82668;BME280;72691;51.374;-0.176;2024-02-23T06:14:32;98261.38;;;2.07;71.79
82668;BME280;72691;51.374;-0.176;2024-02-23T06:16:58;98266.92;;;2.42;70.41
82668;BME280;72691;51.374;-0.176;2024-02-23T06:19:24;98272.44;;;2.11;71.02
82668;BME280;72691;51.374;-0.176;2024-02-23T06:21:49;98271.74;;;2.05;72.12
82668;BME280;72691;51.374;-0.176;2024-02-23T06:24:15;98275.16;;;1.54;73.85
82668;BME280;72691;51.374;-0.176;2024-02-23T06:26:40;98278.25;;;1.49;73.88
82668;BME280;72691;51.374;-0.176;2024-02-23T06:29:05;98272.63;;;2.05;73.07
82668;BME280;72691;51.374;-0.176;2024-02-23T06:31:31;98269.54;;;2.41;72.02
82668;BME280;72691;51.374;-0.176;2024-02-23T06:33:56;98277.99;;;1.82;71.05
82668;BME280;72691;51.374;-0.176;2024-02-23T06:36:21;98286.30;;;1.59;72.96
82668;BME280;72691;51.374;-0.176;2024-02-23T06:38:47;98283.99;;;1.96;73.12
82668;BME280;72691;51.374;-0.176;2024-02-23T06:41:13;98289.26;;;1.65;73.78
82668;BME280;72691;51.374;-0.176;2024-02-23T06:43:38;98287.09;;;2.36;72.22
82668;BME280;72691;51.374;-0.176;2024-02-23T06:46:06;98294.07;;;1.68;72.73
82668;BME280;72691;51.374;-0.176;2024-02-23T06:48:30;98295.05;;;2.02;72.46
82668;BME280;72691;51.374;-0.176;2024-02-23T06:50:54;98301.03;;;1.41;73.88
82668;BME280;72691;51.374;-0.176;2024-02-23T06:53:20;98295.90;;;1.89;71.22
82668;BME280;72691;51.374;-0.176;2024-02-23T06:55:45;98298.94;;;2.93;68.66
82668;BME280;72691;51.374;-0.176;2024-02-23T06:58:11;98306.70;;;1.80;70.53
82668;BME280;72691;51.374;-0.176;2024-02-23T07:00:36;98315.35;;;1.60;72.16
82668;BME280;72691;51.374;-0.176;2024-02-23T07:03:02;98316.91;;;1.23;73.29
82668;BME280;72691;51.374;-0.176;2024-02-23T07:05:28;98310.19;;;1.60;71.88
82668;BME280;72691;51.374;-0.176;2024-02-23T07:07:53;98311.26;;;1.87;70.85
82668;BME280;72691;51.374;-0.176;2024-02-23T07:10:18;98315.47;;;2.56;69.03
82668;BME280;72691;51.374;-0.176;2024-02-23T07:12:44;98324.01;;;2.87;68.48
82668;BME280;72691;51.374;-0.176;2024-02-23T07:15:09;98324.38;;;2.89;67.94
82668;BME280;72691;51.374;-0.176;2024-02-23T07:17:35;98332.94;;;2.24;69.17
82668;BME280;72691;51.374;-0.176;2024-02-23T07:20:01;98338.19;;;2.49;69.83
82668;BME280;72691;51.374;-0.176;2024-02-23T07:22:26;98340.10;;;1.75;70.58
82668;BME280;72691;51.374;-0.176;2024-02-23T07:24:51;98342.61;;;1.95;72.06
82668;BME280;72691;51.374;-0.176;2024-02-23T07:27:17;98342.18;;;1.19;72.87
82668;BME280;72691;51.374;-0.176;2024-02-23T07:29:42;98345.61;;;1.61;72.69
82668;BME280;72691;51.374;-0.176;2024-02-23T07:32:08;98346.25;;;1.64;72.38
82668;BME280;72691;51.374;-0.176;2024-02-23T07:34:33;98343.08;;;1.92;71.51
82668;BME280;72691;51.374;-0.176;2024-02-23T07:37:00;98343.30;;;2.03;71.86
82668;BME280;72691;51.374;-0.176;2024-02-23T07:39:24;98342.18;;;1.67;72.83
82668;BME280;72691;51.374;-0.176;2024-02-23T07:41:50;98344.41;;;2.01;72.32
82668;BME280;72691;51.374;-0.176;2024-02-23T07:44:17;98344.36;;;1.75;71.69
82668;BME280;72691;51.374;-0.176;2024-02-23T07:46:41;98346.49;;;1.93;70.96
82668;BME280;72691;51.374;-0.176;2024-02-23T07:49:06;98352.50;;;2.08;71.28
82668;BME280;72691;51.374;-0.176;2024-02-23T07:51:32;98358.22;;;1.75;72.04
82668;BME280;72691;51.374;-0.176;2024-02-23T07:53:57;98357.26;;;1.99;71.61
82668;BME280;72691;51.374;-0.176;2024-02-23T07:56:23;98363.06;;;2.27;70.10
82668;BME280;72691;51.374;-0.176;2024-02-23T07:58:48;98368.43;;;2.18;70.91
82668;BME280;72691;51.374;-0.176;2024-02-23T08:01:14;98365.98;;;1.72;71.17
82668;BME280;72691;51.374;-0.176;2024-02-23T08:03:40;98363.97;;;2.11;70.78
82668;BME280;72691;51.374;-0.176;2024-02-23T08:06:06;98364.52;;;2.43;69.25
82668;BME280;72691;51.374;-0.176;2024-02-23T08:08:30;98362.38;;;2.78;68.90
82668;BME280;72691;51.374;-0.176;2024-02-23T08:10:56;98366.35;;;2.13;70.11
82668;BME280;72691;51.374;-0.176;2024-02-23T08:13:21;98369.50;;;2.08;71.16
82668;BME280;72691;51.374;-0.176;2024-02-23T08:15:47;98378.65;;;2.05;71.26
82668;BME280;72691;51.374;-0.176;2024-02-23T08:18:12;98379.26;;;1.78;72.31
82668;BME280;72691;51.374;-0.176;2024-02-23T08:20:38;98384.69;;;2.46;70.25
82668;BME280;72691;51.374;-0.176;2024-02-23T08:23:03;98386.49;;;1.98;71.35
82668;BME280;72691;51.374;-0.176;2024-02-23T08:25:29;98387.72;;;2.13;70.65
82668;BME280;72691;51.374;-0.176;2024-02-23T08:27:54;98386.55;;;1.62;72.23
82668;BME280;72691;51.374;-0.176;2024-02-23T08:30:20;98386.87;;;1.78;71.10
82668;BME280;72691;51.374;-0.176;2024-02-23T08:32:45;98384.04;;;2.53;69.81
82668;BME280;72691;51.374;-0.176;2024-02-23T08:35:11;98390.69;;;2.43;70.14
82668;BME280;72691;51.374;-0.176;2024-02-23T08:37:37;98384.56;;;2.94;68.25
82668;BME280;72691;51.374;-0.176;2024-02-23T08:40:02;98394.63;;;2.31;68.66
82668;BME280;72691;51.374;-0.176;2024-02-23T08:42:27;98389.17;;;3.33;66.51
82668;BME280;72691;51.374;-0.176;2024-02-23T08:44:53;98392.75;;;3.23;66.80
82668;BME280;72691;51.374;-0.176;2024-02-23T08:47:18;98397.72;;;2.14;69.49
82668;BME280;72691;51.374;-0.176;2024-02-23T08:49:44;98395.85;;;3.27;67.90
82668;BME280;72691;51.374;-0.176;2024-02-23T08:52:09;98396.95;;;3.17;67.25
82668;BME280;72691;51.374;-0.176;2024-02-23T08:54:35;98397.02;;;3.14;67.56
82668;BME280;72691;51.374;-0.176;2024-02-23T08:57:01;98399.43;;;2.88;68.30
82668;BME280;72691;51.374;-0.176;2024-02-23T08:59:26;98407.40;;;2.60;68.29
82668;BME280;72691;51.374;-0.176;2024-02-23T09:01:51;98415.07;;;2.58;69.33
82668;BME280;72691;51.374;-0.176;2024-02-23T09:04:17;98417.59;;;2.44;69.26
82668;BME280;72691;51.374;-0.176;2024-02-23T09:06:43;98415.11;;;3.29;67.30
82668;BME280;72691;51.374;-0.176;2024-02-23T09:09:08;98417.69;;;3.08;67.32
82668;BME280;72691;51.374;-0.176;2024-02-23T09:11:33;98417.17;;;3.54;66.68
82668;BME280;72691;51.374;-0.176;2024-02-23T09:13:59;98426.69;;;3.05;67.22
82668;BME280;72691;51.374;-0.176;2024-02-23T09:16:24;98424.16;;;2.75;68.48
82668;BME280;72691;51.374;-0.176;2024-02-23T09:18:50;98415.83;;;3.66;66.06
82668;BME280;72691;51.374;-0.176;2024-02-23T09:21:16;98411.49;;;4.49;63.94
82668;BME280;72691;51.374;-0.176;2024-02-23T09:23:41;98410.35;;;4.01;63.80
82668;BME280;72691;51.374;-0.176;2024-02-23T09:26:09;98411.72;;;4.24;63.26
82668;BME280;72691;51.374;-0.176;2024-02-23T09:28:31;98414.46;;;4.16;63.10
82668;BME280;72691;51.374;-0.176;2024-02-23T09:30:57;98415.89;;;3.96;65.14
82668;BME280;72691;51.374;-0.176;2024-02-23T09:33:22;98416.18;;;3.50;67.98
82668;BME280;72691;51.374;-0.176;2024-02-23T09:35:47;98413.07;;;3.34;67.99
82668;BME280;72691;51.374;-0.176;2024-02-23T09:38:14;98414.73;;;4.10;66.78
82668;BME280;72691;51.374;-0.176;2024-02-23T09:40:39;98418.69;;;3.52;67.68
82668;BME280;72691;51.374;-0.176;2024-02-23T09:43:08;98412.28;;;3.17;67.91
82668;BME280;72691;51.374;-0.176;2024-02-23T09:45:30;98418.50;;;3.96;65.94
82668;BME280;72691;51.374;-0.176;2024-02-23T09:47:56;98417.28;;;3.64;65.38
82668;BME280;72691;51.374;-0.176;2024-02-23T09:50:22;98424.79;;;3.93;65.40
82668;BME280;72691;51.374;-0.176;2024-02-23T09:52:47;98432.35;;;3.12;67.41
82668;BME280;72691;51.374;-0.176;2024-02-23T09:55:12;98421.12;;;3.70;67.33
82668;BME280;72691;51.374;-0.176;2024-02-23T09:57:38;98418.40;;;4.19;64.11
82668;BME280;72691;51.374;-0.176;2024-02-23T10:00:03;98427.86;;;4.22;64.18
82668;BME280;72691;51.374;-0.176;2024-02-23T10:02:30;98430.48;;;3.86;65.08
82668;BME280;72691;51.374;-0.176;2024-02-23T10:04:54;98431.45;;;3.90;64.99
82668;BME280;72691;51.374;-0.176;2024-02-23T10:07:19;98432.66;;;4.31;63.30
82668;BME280;72691;51.374;-0.176;2024-02-23T10:09:45;98434.10;;;4.68;62.48
82668;BME280;72691;51.374;-0.176;2024-02-23T10:12:10;98437.09;;;4.99;61.62
82668;BME280;72691;51.374;-0.176;2024-02-23T10:14:35;98439.80;;;4.66;62.29
82668;BME280;72691;51.374;-0.176;2024-02-23T10:17:00;98443.20;;;4.31;63.15
82668;BME280;72691;51.374;-0.176;2024-02-23T10:19:26;98442.51;;;4.42;62.01
82668;BME280;72691;51.374;-0.176;2024-02-23T10:21:52;98441.31;;;4.65;61.47
82668;BME280;72691;51.374;-0.176;2024-02-23T10:24:17;98440.52;;;5.27;61.01
82668;BME280;72691;51.374;-0.176;2024-02-23T10:26:42;98432.03;;;5.47;60.29
82668;BME280;72691;51.374;-0.176;2024-02-23T10:29:08;98435.04;;;6.21;57.70
82668;BME280;72691;51.374;-0.176;2024-02-23T10:31:35;98437.10;;;4.79;60.81
82668;BME280;72691;51.374;-0.176;2024-02-23T10:33:59;98440.92;;;6.51;57.39
82668;BME280;72691;51.374;-0.176;2024-02-23T10:36:29;98448.78;;;5.64;59.84
82668;BME280;72691;51.374;-0.176;2024-02-23T10:38:53;98443.95;;;6.12;57.72
82668;BME280;72691;51.374;-0.176;2024-02-23T10:41:17;98441.43;;;7.13;55.06
82668;BME280;72691;51.374;-0.176;2024-02-23T10:43:44;98445.47;;;6.91;55.90
82668;BME280;72691;51.374;-0.176;2024-02-23T10:46:06;98438.88;;;6.81;54.46
82668;BME280;72691;51.374;-0.176;2024-02-23T10:48:31;98435.98;;;7.01;55.25
82668;BME280;72691;51.374;-0.176;2024-02-23T10:50:58;98432.08;;;7.59;54.97
82668;BME280;72691;51.374;-0.176;2024-02-23T10:53:23;98432.01;;;8.73;50.84
82668;BME280;72691;51.374;-0.176;2024-02-23T10:55:48;98437.65;;;7.71;53.65
82668;BME280;72691;51.374;-0.176;2024-02-23T10:58:13;98436.49;;;7.51;53.35
82668;BME280;72691;51.374;-0.176;2024-02-23T11:00:39;98432.78;;;7.49;53.30
82668;BME280;72691;51.374;-0.176;2024-02-23T11:03:04;98430.14;;;8.01;52.08
82668;BME280;72691;51.374;-0.176;2024-02-23T11:05:29;98431.44;;;7.26;52.19
82668;BME280;72691;51.374;-0.176;2024-02-23T11:07:56;98432.46;;;7.13;52.53
82668;BME280;72691;51.374;-0.176;2024-02-23T11:10:22;98422.86;;;6.53;53.61
82668;BME280;72691;51.374;-0.176;2024-02-23T11:12:45;98428.76;;;8.00;51.96
82668;BME280;72691;51.374;-0.176;2024-02-23T11:17:37;98425.69;;;8.43;50.86
82668;BME280;72691;51.374;-0.176;2024-02-23T11:20:03;98426.98;;;8.40;49.86
82668;BME280;72691;51.374;-0.176;2024-02-23T11:22:30;98419.58;;;9.07;49.55
82668;BME280;72691;51.374;-0.176;2024-02-23T11:24:53;98430.94;;;8.50;49.67
82668;BME280;72691;51.374;-0.176;2024-02-23T11:27:18;98437.27;;;8.22;49.19
82668;BME280;72691;51.374;-0.176;2024-02-23T11:29:46;98433.44;;;8.02;49.94
82668;BME280;72691;51.374;-0.176;2024-02-23T11:32:13;98424.42;;;9.03;48.88
82668;BME280;72691;51.374;-0.176;2024-02-23T11:34:34;98425.11;;;9.30;47.98
82668;BME280;72691;51.374;-0.176;2024-02-23T11:37:07;98427.25;;;8.17;49.52
82668;BME280;72691;51.374;-0.176;2024-02-23T11:39:26;98421.60;;;8.58;48.29
82668;BME280;72691;51.374;-0.176;2024-02-23T11:41:50;98421.80;;;7.86;49.59
82668;BME280;72691;51.374;-0.176;2024-02-23T11:44:17;98425.80;;;8.42;48.26
82668;BME280;72691;51.374;-0.176;2024-02-23T11:46:41;98419.97;;;8.27;48.99
82668;BME280;72691;51.374;-0.176;2024-02-23T11:49:07;98422.62;;;8.45;48.46
82668;BME280;72691;51.374;-0.176;2024-02-23T11:51:33;98415.81;;;8.82;47.49
82668;BME280;72691;51.374;-0.176;2024-02-23T11:53:58;98414.02;;;8.98;47.76
82668;BME280;72691;51.374;-0.176;2024-02-23T11:56:23;98416.72;;;8.65;47.99
82668;BME280;72691;51.374;-0.176;2024-02-23T11:58:49;98420.72;;;8.72;46.49
82668;BME280;72691;51.374;-0.176;2024-02-23T12:01:14;98412.23;;;8.38;47.47
82668;BME280;72691;51.374;-0.176;2024-02-23T12:03:40;98415.87;;;8.48;47.58
82668;BME280;72691;51.374;-0.176;2024-02-23T12:06:05;98418.05;;;7.31;48.73
82668;BME280;72691;51.374;-0.176;2024-02-23T12:08:31;98418.62;;;7.46;49.22
82668;BME280;72691;51.374;-0.176;2024-02-23T12:10:57;98413.72;;;7.69;48.28
82668;BME280;72691;51.374;-0.176;2024-02-23T12:13:21;98410.33;;;7.66;48.06
82668;BME280;72691;51.374;-0.176;2024-02-23T12:15:47;98404.08;;;8.61;47.31
82668;BME280;72691;51.374;-0.176;2024-02-23T12:18:12;98405.61;;;9.34;45.70
82668;BME280;72691;51.374;-0.176;2024-02-23T12:20:37;98405.96;;;9.13;46.67
82668;BME280;72691;51.374;-0.176;2024-02-23T12:23:03;98406.75;;;8.69;46.50
82668;BME280;72691;51.374;-0.176;2024-02-23T12:25:28;98409.08;;;8.67;47.47
82668;BME280;72691;51.374;-0.176;2024-02-23T12:27:54;98410.77;;;7.87;47.92
82668;BME280;72691;51.374;-0.176;2024-02-23T12:30:19;98413.31;;;7.73;48.27
82668;BME280;72691;51.374;-0.176;2024-02-23T12:32:44;98419.40;;;8.11;48.01
82668;BME280;72691;51.374;-0.176;2024-02-23T12:35:11;98413.19;;;7.63;48.37
82668;BME280;72691;51.374;-0.176;2024-02-23T12:37:35;98409.66;;;8.22;47.41
82668;BME280;72691;51.374;-0.176;2024-02-23T12:40:01;98412.02;;;7.84;47.98
82668;BME280;72691;51.374;-0.176;2024-02-23T12:42:26;98417.93;;;7.62;49.27
82668;BME280;72691;51.374;-0.176;2024-02-23T12:44:51;98414.17;;;7.93;48.71
82668;BME280;72691;51.374;-0.176;2024-02-23T12:47:17;98416.46;;;7.90;48.78
82668;BME280;72691;51.374;-0.176;2024-02-23T12:49:42;98417.36;;;8.97;47.34
82668;BME280;72691;51.374;-0.176;2024-02-23T12:52:08;98415.25;;;8.01;49.38